Time;durP1;ratioP1;P1;durP2;ratioP2;P2;SDS_P1;SDS_P2;PMS_P1;PMS_P2;Temp;Humidity;BMP_temperature;BMP_pressure;BME280_temperature;BME280_humidity;BME280_pressure;Samples;Min_cycle;Max_cycle;Signal;HPM_P1;HPM_P2
2022/05/20 00:00:53;;;;;;;7.349999;5.1;;;;;;;18.31;62.03809;96011.36;;;;
2022/05/20 00:01:54;;;;;;;7.349999;5.1;;;;;;;18.31;62.03809;96011.36;;;;
2022/05/20 00:02:54;;;;;;;7.349999;5.1;;;;;;;18.31;62.03809;96011.36;;;;
2022/05/20 00:03:55;;;;;;;7.349999;5.1;;;;;;;18.31;62.03809;96011.36;;;;
2022/05/20 00:04:55;;;;;;;7.349999;5.1;;;;;;;18.31;62.03809;96011.36;;;;
2022/05/20 00:05:56;;;;;;;7.349999;5.1;;;;;;;18.31;62.03809;96011.36;;;;
2022/05/20 00:06:56;;;;;;;7.349999;5.1;;;;;;;18.31;62.03809;96011.36;;;;
2022/05/20 00:07:57;;;;;;;7.949999;5.2;;;;;;;18.36;62.67188;96040.89;;;;
2022/05/20 00:08:58;;;;;;;7.949999;5.2;;;;;;;18.36;62.67188;96040.89;;;;
2022/05/20 00:09:58;;;;;;;7.949999;5.2;;;;;;;18.36;62.67188;96040.89;;;;
2022/05/20 00:10:59;;;;;;;7.949999;5.2;;;;;;;18.36;62.67188;96040.89;;;;
2022/05/20 00:11:59;;;;;;;7.949999;5.2;;;;;;;18.36;62.67188;96040.89;;;;
2022/05/20 00:13:00;;;;;;;7.949999;5.2;;;;;;;18.36;62.67188;96040.89;;;;
2022/05/20 00:14:01;;;;;;;7.949999;5.2;;;;;;;18.36;62.67188;96040.89;;;;
2022/05/20 00:15:02;;;;;;;7.949999;5.2;;;;;;;18.36;62.67188;96040.89;;;;
2022/05/20 00:16:04;;;;;;;7.949999;5.2;;;;;;;18.36;62.67188;96040.89;;;;
2022/05/20 00:17:05;;;;;;;7.949999;5.2;;;;;;;18.36;62.67188;96040.89;;;;
2022/05/20 00:18:06;;;;;;;6.450001;5;;;;;;;18.28;63.06836;96026.05;;;;
2022/05/20 00:19:06;;;;;;;6.450001;5;;;;;;;18.28;63.06836;96026.05;;;;
2022/05/20 00:20:08;;;;;;;6.450001;5;;;;;;;18.28;63.06836;96026.05;;;;
2022/05/20 00:21:12;;;;;;;6.450001;5;;;;;;;18.28;63.06836;96026.05;;;;
2022/05/20 00:22:12;;;;;;;6.450001;5;;;;;;;18.28;63.06836;96026.05;;;;
2022/05/20 00:23:13;;;;;;;6.450001;5;;;;;;;18.28;63.06836;96026.05;;;;
2022/05/20 00:24:13;;;;;;;6.450001;5;;;;;;;18.28;63.06836;96026.05;;;;
2022/05/20 00:25:46;;;;;;;6.450001;5;;;;;;;18.28;63.06836;96026.05;;;;
2022/05/20 00:26:47;;;;;;;6.450001;5;;;;;;;18.28;63.06836;96026.05;;;;
2022/05/20 00:27:47;;;;;;;6.450001;5;;;;;;;18.28;63.06836;96026.05;;;;
2022/05/20 00:28:48;;;;;;;7.499999;5.05;;;;;;;18.08;63.66504;96014.15;;;;
2022/05/20 00:29:49;;;;;;;7.499999;5.05;;;;;;;18.08;63.66504;96014.15;;;;
2022/05/20 00:30:50;;;;;;;7.499999;5.05;;;;;;;18.08;63.66504;96014.15;;;;
2022/05/20 00:31:53;;;;;;;7.499999;5.05;;;;;;;18.08;63.66504;96014.15;;;;
2022/05/20 00:32:54;;;;;;;7.499999;5.05;;;;;;;18.08;63.66504;96014.15;;;;
2022/05/20 00:33:54;;;;;;;7.499999;5.05;;;;;;;18.08;63.66504;96014.15;;;;
2022/05/20 00:34:55;;;;;;;7.499999;5.05;;;;;;;18.08;63.66504;96014.15;;;;
2022/05/20 00:35:55;;;;;;;7.499999;5.05;;;;;;;18.08;63.66504;96014.15;;;;
2022/05/20 00:36:56;;;;;;;7.499999;5.05;;;;;;;18.08;63.66504;96014.15;;;;
2022/05/20 00:37:56;;;;;;;7.499999;5.05;;;;;;;18.08;63.66504;96014.15;;;;
2022/05/20 00:38:57;;;;;;;7.499999;5.05;;;;;;;18.08;63.66504;96014.15;;;;
2022/05/20 00:39:57;;;;;;;7.55;5.099999;;;;;;;17.73;64.4707;96023.67;;;;
2022/05/20 00:40:58;;;;;;;7.55;5.099999;;;;;;;17.73;64.4707;96023.67;;;;
2022/05/20 00:41:59;;;;;;;7.55;5.099999;;;;;;;17.73;64.4707;96023.67;;;;
2022/05/20 00:43:09;;;;;;;7.55;5.099999;;;;;;;17.73;64.4707;96023.67;;;;
2022/05/20 00:44:13;;;;;;;7.55;5.099999;;;;;;;17.73;64.4707;96023.67;;;;
2022/05/20 00:45:13;;;;;;;7.55;5.099999;;;;;;;17.73;64.4707;96023.67;;;;
2022/05/20 00:46:15;;;;;;;7.55;5.099999;;;;;;;17.73;64.4707;96023.67;;;;
2022/05/20 00:47:18;;;;;;;7.55;5.099999;;;;;;;17.73;64.4707;96023.67;;;;
2022/05/20 00:48:19;;;;;;;7.55;5.099999;;;;;;;17.73;64.4707;96023.67;;;;
2022/05/20 00:49:19;;;;;;;7.55;5.099999;;;;;;;17.73;64.4707;96023.67;;;;
2022/05/20 00:50:20;;;;;;;8.25;4.950001;;;;;;;17.37;65.18457;96009.68;;;;
2022/05/20 00:51:20;;;;;;;8.25;4.950001;;;;;;;17.37;65.18457;96009.68;;;;
2022/05/20 00:52:26;;;;;;;8.25;4.950001;;;;;;;17.37;65.18457;96009.68;;;;
2022/05/20 00:53:32;;;;;;;8.25;4.950001;;;;;;;17.37;65.18457;96009.68;;;;
2022/05/20 00:54:37;;;;;;;8.25;4.950001;;;;;;;17.37;65.18457;96009.68;;;;
2022/05/20 00:55:41;;;;;;;8.25;4.950001;;;;;;;17.37;65.18457;96009.68;;;;
2022/05/20 00:56:42;;;;;;;8.25;4.950001;;;;;;;17.37;65.18457;96009.68;;;;
2022/05/20 00:57:49;;;;;;;8.25;4.950001;;;;;;;17.37;65.18457;96009.68;;;;
2022/05/20 00:58:54;;;;;;;8.25;4.950001;;;;;;;17.37;65.18457;96009.68;;;;
2022/05/20 00:59:56;;;;;;;8.25;4.950001;;;;;;;17.37;65.18457;96009.68;;;;
2022/05/20 01:01:04;;;;;;;5.900001;4.75;;;;;;;17.14;65.96191;96005.19;;;;
2022/05/20 01:02:04;;;;;;;5.900001;4.75;;;;;;;17.14;65.96191;96005.19;;;;
2022/05/20 01:03:10;;;;;;;5.900001;4.75;;;;;;;17.14;65.96191;96005.19;;;;
2022/05/20 01:04:13;;;;;;;5.900001;4.75;;;;;;;17.14;65.96191;96005.19;;;;
2022/05/20 01:05:15;;;;;;;5.900001;4.75;;;;;;;17.14;65.96191;96005.19;;;;
2022/05/20 01:06:26;;;;;;;5.900001;4.75;;;;;;;17.14;65.96191;96005.19;;;;
2022/05/20 01:07:27;;;;;;;5.900001;4.75;;;;;;;17.14;65.96191;96005.19;;;;
2022/05/20 01:08:29;;;;;;;5.900001;4.75;;;;;;;17.14;65.96191;96005.19;;;;
2022/05/20 01:09:32;;;;;;;5.900001;4.75;;;;;;;17.14;65.96191;96005.19;;;;
2022/05/20 01:10:35;;;;;;;5.900001;4.75;;;;;;;17.14;65.96191;96005.19;;;;
2022/05/20 01:11:36;;;;;;;6.649999;5.199999;;;;;;;17.1;66.38379;95982.64;;;;
2022/05/20 01:12:39;;;;;;;6.649999;5.199999;;;;;;;17.1;66.38379;95982.64;;;;
2022/05/20 01:13:40;;;;;;;6.649999;5.199999;;;;;;;17.1;66.38379;95982.64;;;;
2022/05/20 01:14:40;;;;;;;6.649999;5.199999;;;;;;;17.1;66.38379;95982.64;;;;
2022/05/20 01:15:41;;;;;;;6.649999;5.199999;;;;;;;17.1;66.38379;95982.64;;;;
2022/05/20 01:16:42;;;;;;;6.649999;5.199999;;;;;;;17.1;66.38379;95982.64;;;;
2022/05/20 01:17:43;;;;;;;6.649999;5.199999;;;;;;;17.1;66.38379;95982.64;;;;
2022/05/20 01:18:45;;;;;;;6.649999;5.199999;;;;;;;17.1;66.38379;95982.64;;;;
2022/05/20 01:19:47;;;;;;;6.649999;5.199999;;;;;;;17.1;66.38379;95982.64;;;;
2022/05/20 01:20:52;;;;;;;6.649999;5.199999;;;;;;;17.1;66.38379;95982.64;;;;
2022/05/20 01:21:55;;;;;;;6.05;4.45;;;;;;;17.07;66.80469;95966.68;;;;
2022/05/20 01:22:56;;;;;;;6.05;4.45;;;;;;;17.07;66.80469;95966.68;;;;
2022/05/20 01:24:01;;;;;;;6.05;4.45;;;;;;;17.07;66.80469;95966.68;;;;
2022/05/20 01:25:03;;;;;;;6.05;4.45;;;;;;;17.07;66.80469;95966.68;;;;
2022/05/20 01:26:06;;;;;;;6.05;4.45;;;;;;;17.07;66.80469;95966.68;;;;
2022/05/20 01:27:06;;;;;;;6.05;4.45;;;;;;;17.07;66.80469;95966.68;;;;
2022/05/20 01:28:07;;;;;;;6.05;4.45;;;;;;;17.07;66.80469;95966.68;;;;
2022/05/20 01:29:08;;;;;;;6.05;4.45;;;;;;;17.07;66.80469;95966.68;;;;
2022/05/20 01:30:08;;;;;;;6.05;4.45;;;;;;;17.07;66.80469;95966.68;;;;
2022/05/20 01:31:12;;;;;;;6.05;4.45;;;;;;;17.07;66.80469;95966.68;;;;
2022/05/20 01:32:14;;;;;;;6.05;4.45;;;;;;;17.07;66.80469;95966.68;;;;
2022/05/20 01:33:15;;;;;;;5.000001;3.85;;;;;;;17.05;67.2627;95954.49;;;;
2022/05/20 01:34:21;;;;;;;5.000001;3.85;;;;;;;17.05;67.2627;95954.49;;;;
2022/05/20 01:35:22;;;;;;;5.000001;3.85;;;;;;;17.05;67.2627;95954.49;;;;
2022/05/20 01:36:31;;;;;;;5.000001;3.85;;;;;;;17.05;67.2627;95954.49;;;;
2022/05/20 01:37:31;;;;;;;5.000001;3.85;;;;;;;17.05;67.2627;95954.49;;;;
2022/05/20 01:38:32;;;;;;;5.000001;3.85;;;;;;;17.05;67.2627;95954.49;;;;
2022/05/20 01:39:33;;;;;;;5.000001;3.85;;;;;;;17.05;67.2627;95954.49;;;;
2022/05/20 01:40:33;;;;;;;5.000001;3.85;;;;;;;17.05;67.2627;95954.49;;;;
2022/05/20 01:41:41;;;;;;;5.000001;3.85;;;;;;;17.05;67.2627;95954.49;;;;
2022/05/20 01:42:48;;;;;;;5.000001;3.85;;;;;;;17.05;67.2627;95954.49;;;;
2022/05/20 01:43:56;;;;;;;4.25;3.9;;;;;;;17.13;67.44922;95944.9;;;;
2022/05/20 01:45:07;;;;;;;4.25;3.9;;;;;;;17.13;67.44922;95944.9;;;;
2022/05/20 01:46:15;;;;;;;4.25;3.9;;;;;;;17.13;67.44922;95944.9;;;;
2022/05/20 01:47:25;;;;;;;4.25;3.9;;;;;;;17.13;67.44922;95944.9;;;;
2022/05/20 01:48:33;;;;;;;4.25;3.9;;;;;;;17.13;67.44922;95944.9;;;;
2022/05/20 01:49:39;;;;;;;4.25;3.9;;;;;;;17.13;67.44922;95944.9;;;;
2022/05/20 01:50:48;;;;;;;4.25;3.9;;;;;;;17.13;67.44922;95944.9;;;;
2022/05/20 01:51:53;;;;;;;4.25;3.9;;;;;;;17.13;67.44922;95944.9;;;;
2022/05/20 01:53:00;;;;;;;4.25;3.9;;;;;;;17.13;67.44922;95944.9;;;;
2022/05/20 01:54:07;;;;;;;5.9;4;;;;;;;17.06;67.59277;95938.76;;;;
2022/05/20 01:55:12;;;;;;;5.9;4;;;;;;;17.06;67.59277;95938.76;;;;
2022/05/20 01:56:18;;;;;;;5.9;4;;;;;;;17.06;67.59277;95938.76;;;;
2022/05/20 01:57:22;;;;;;;5.9;4;;;;;;;17.06;67.59277;95938.76;;;;
2022/05/20 01:58:28;;;;;;;5.9;4;;;;;;;17.06;67.59277;95938.76;;;;
2022/05/20 01:59:35;;;;;;;5.9;4;;;;;;;17.06;67.59277;95938.76;;;;
2022/05/20 02:00:41;;;;;;;5.9;4;;;;;;;17.06;67.59277;95938.76;;;;
2022/05/20 02:01:43;;;;;;;5.9;4;;;;;;;17.06;67.59277;95938.76;;;;
2022/05/20 02:02:48;;;;;;;5.9;4;;;;;;;17.06;67.59277;95938.76;;;;
2022/05/20 02:03:56;;;;;;;5.9;4;;;;;;;17.06;67.59277;95938.76;;;;
2022/05/20 02:05:04;;;;;;;4.799999;3.85;;;;;;;16.86;67.81348;95925.48;;;;
2022/05/20 02:06:10;;;;;;;4.799999;3.85;;;;;;;16.86;67.81348;95925.48;;;;
2022/05/20 02:07:16;;;;;;;4.799999;3.85;;;;;;;16.86;67.81348;95925.48;;;;
2022/05/20 02:08:21;;;;;;;4.799999;3.85;;;;;;;16.86;67.81348;95925.48;;;;
2022/05/20 02:09:27;;;;;;;4.799999;3.85;;;;;;;16.86;67.81348;95925.48;;;;
2022/05/20 02:10:33;;;;;;;4.799999;3.85;;;;;;;16.86;67.81348;95925.48;;;;
2022/05/20 02:11:37;;;;;;;4.799999;3.85;;;;;;;16.86;67.81348;95925.48;;;;
2022/05/20 02:12:46;;;;;;;4.799999;3.85;;;;;;;16.86;67.81348;95925.48;;;;
2022/05/20 02:13:52;;;;;;;4.799999;3.85;;;;;;;16.86;67.81348;95925.48;;;;
2022/05/20 02:14:59;;;;;;;4.799999;3.85;;;;;;;16.86;67.81348;95925.48;;;;
2022/05/20 02:16:06;;;;;;;4.8;4.1;;;;;;;16.59;68.20898;95907.83;;;;
2022/05/20 02:17:12;;;;;;;4.8;4.1;;;;;;;16.59;68.20898;95907.83;;;;
2022/05/20 02:18:17;;;;;;;4.8;4.1;;;;;;;16.59;68.20898;95907.83;;;;
2022/05/20 02:19:22;;;;;;;4.8;4.1;;;;;;;16.59;68.20898;95907.83;;;;
2022/05/20 02:20:28;;;;;;;4.8;4.1;;;;;;;16.59;68.20898;95907.83;;;;
2022/05/20 02:21:36;;;;;;;4.8;4.1;;;;;;;16.59;68.20898;95907.83;;;;
2022/05/20 02:22:42;;;;;;;4.8;4.1;;;;;;;16.59;68.20898;95907.83;;;;
2022/05/20 02:23:49;;;;;;;4.8;4.1;;;;;;;16.59;68.20898;95907.83;;;;
2022/05/20 02:24:58;;;;;;;4.8;4.1;;;;;;;16.59;68.20898;95907.83;;;;
2022/05/20 02:26:02;;;;;;;4.1;3.8;;;;;;;16.35;68.7627;95907.53;;;;
2022/05/20 02:27:07;;;;;;;4.1;3.8;;;;;;;16.35;68.7627;95907.53;;;;
2022/05/20 02:28:15;;;;;;;4.1;3.8;;;;;;;16.35;68.7627;95907.53;;;;
2022/05/20 02:29:20;;;;;;;4.1;3.8;;;;;;;16.35;68.7627;95907.53;;;;
2022/05/20 02:30:27;;;;;;;4.1;3.8;;;;;;;16.35;68.7627;95907.53;;;;
2022/05/20 02:31:31;;;;;;;4.1;3.8;;;;;;;16.35;68.7627;95907.53;;;;
2022/05/20 02:32:37;;;;;;;4.1;3.8;;;;;;;16.35;68.7627;95907.53;;;;
2022/05/20 02:33:44;;;;;;;4.1;3.8;;;;;;;16.35;68.7627;95907.53;;;;
2022/05/20 02:34:44;;;;;;;4.1;3.8;;;;;;;16.35;68.7627;95907.53;;;;
2022/05/20 02:35:45;;;;;;;4.1;3.8;;;;;;;16.35;68.7627;95907.53;;;;
2022/05/20 02:36:45;;;;;;;3.85;3.400001;;;;;;;16.27;69.18555;95903.46;;;;
2022/05/20 02:37:46;;;;;;;3.85;3.400001;;;;;;;16.27;69.18555;95903.46;;;;
2022/05/20 02:38:47;;;;;;;3.85;3.400001;;;;;;;16.27;69.18555;95903.46;;;;
2022/05/20 02:39:48;;;;;;;3.85;3.400001;;;;;;;16.27;69.18555;95903.46;;;;
2022/05/20 02:40:49;;;;;;;3.85;3.400001;;;;;;;16.27;69.18555;95903.46;;;;
2022/05/20 02:41:52;;;;;;;3.85;3.400001;;;;;;;16.27;69.18555;95903.46;;;;
2022/05/20 02:42:53;;;;;;;3.85;3.400001;;;;;;;16.27;69.18555;95903.46;;;;
2022/05/20 02:43:54;;;;;;;3.85;3.400001;;;;;;;16.27;69.18555;95903.46;;;;
2022/05/20 02:44:54;;;;;;;3.85;3.400001;;;;;;;16.27;69.18555;95903.46;;;;
2022/05/20 02:45:56;;;;;;;3.85;3.400001;;;;;;;16.27;69.18555;95903.46;;;;
2022/05/20 02:46:57;;;;;;;3.85;3.400001;;;;;;;16.27;69.18555;95903.46;;;;
2022/05/20 02:47:58;;;;;;;3.7;3.35;;;;;;;16.23;69.5293;95900.02;;;;
2022/05/20 02:48:58;;;;;;;3.7;3.35;;;;;;;16.23;69.5293;95900.02;;;;
2022/05/20 02:49:59;;;;;;;3.7;3.35;;;;;;;16.23;69.5293;95900.02;;;;
2022/05/20 02:51:00;;;;;;;3.7;3.35;;;;;;;16.23;69.5293;95900.02;;;;
2022/05/20 02:52:01;;;;;;;3.7;3.35;;;;;;;16.23;69.5293;95900.02;;;;
2022/05/20 02:53:02;;;;;;;3.7;3.35;;;;;;;16.23;69.5293;95900.02;;;;
2022/05/20 02:54:04;;;;;;;3.7;3.35;;;;;;;16.23;69.5293;95900.02;;;;
2022/05/20 02:55:05;;;;;;;3.7;3.35;;;;;;;16.23;69.5293;95900.02;;;;
2022/05/20 02:56:07;;;;;;;3.7;3.35;;;;;;;16.23;69.5293;95900.02;;;;
2022/05/20 02:57:08;;;;;;;3.7;3.35;;;;;;;16.23;69.5293;95900.02;;;;
2022/05/20 03:04:09;;;;;;;3.8;3.3;;;;;;;16.32;69.62012;95901.33;;;;
2022/05/20 03:04:10;;;;;;;3.8;3.3;;;;;;;16.32;69.62012;95901.33;;;;
2022/05/20 03:05:10;;;;;;;3.8;3.3;;;;;;;16.32;69.62012;95901.33;;;;
2022/05/20 03:06:12;;;;;;;3.8;3.3;;;;;;;16.32;69.62012;95901.33;;;;
2022/05/20 03:07:13;;;;;;;3.8;3.3;;;;;;;16.32;69.62012;95901.33;;;;
2022/05/20 03:08:14;;;;;;;3.8;3.3;;;;;;;16.32;69.62012;95901.33;;;;
2022/05/20 03:09:14;;;;;;;3.45;3;;;;;;;16.41;69.6123;95902.17;;;;
2022/05/20 03:10:17;;;;;;;3.45;3;;;;;;;16.41;69.6123;95902.17;;;;
2022/05/20 03:11:18;;;;;;;3.45;3;;;;;;;16.41;69.6123;95902.17;;;;
2022/05/20 03:12:18;;;;;;;3.45;3;;;;;;;16.41;69.6123;95902.17;;;;
2022/05/20 03:13:19;;;;;;;3.45;3;;;;;;;16.41;69.6123;95902.17;;;;
2022/05/20 03:14:20;;;;;;;3.45;3;;;;;;;16.41;69.6123;95902.17;;;;
2022/05/20 03:15:22;;;;;;;3.45;3;;;;;;;16.41;69.6123;95902.17;;;;
2022/05/20 03:16:23;;;;;;;3.45;3;;;;;;;16.41;69.6123;95902.17;;;;
2022/05/20 03:17:23;;;;;;;3.45;3;;;;;;;16.41;69.6123;95902.17;;;;
2022/05/20 03:18:24;;;;;;;3.45;3;;;;;;;16.41;69.6123;95902.17;;;;
2022/05/20 03:19:24;;;;;;;4.1;3.35;;;;;;;16.42;69.63574;95898.86;;;;
2022/05/20 03:20:25;;;;;;;4.1;3.35;;;;;;;16.42;69.63574;95898.86;;;;
2022/05/20 03:21:26;;;;;;;4.1;3.35;;;;;;;16.42;69.63574;95898.86;;;;
2022/05/20 03:22:27;;;;;;;4.1;3.35;;;;;;;16.42;69.63574;95898.86;;;;
2022/05/20 03:23:27;;;;;;;4.1;3.35;;;;;;;16.42;69.63574;95898.86;;;;
2022/05/20 03:24:28;;;;;;;4.1;3.35;;;;;;;16.42;69.63574;95898.86;;;;
2022/05/20 03:25:29;;;;;;;4.1;3.35;;;;;;;16.42;69.63574;95898.86;;;;
2022/05/20 03:26:29;;;;;;;4.1;3.35;;;;;;;16.42;69.63574;95898.86;;;;
2022/05/20 03:27:30;;;;;;;4.1;3.35;;;;;;;16.42;69.63574;95898.86;;;;
2022/05/20 03:28:31;;;;;;;4.1;3.35;;;;;;;16.42;69.63574;95898.86;;;;
2022/05/20 03:29:32;;;;;;;4.1;3.35;;;;;;;16.42;69.63574;95898.86;;;;
2022/05/20 03:30:32;;;;;;;3.8;3.5;;;;;;;16.33;69.68555;95899.86;;;;
2022/05/20 03:31:33;;;;;;;3.8;3.5;;;;;;;16.33;69.68555;95899.86;;;;
2022/05/20 03:32:36;;;;;;;3.8;3.5;;;;;;;16.33;69.68555;95899.86;;;;
2022/05/20 03:33:36;;;;;;;3.8;3.5;;;;;;;16.33;69.68555;95899.86;;;;
2022/05/20 03:34:38;;;;;;;3.8;3.5;;;;;;;16.33;69.68555;95899.86;;;;
2022/05/20 03:35:40;;;;;;;3.8;3.5;;;;;;;16.33;69.68555;95899.86;;;;
2022/05/20 03:36:40;;;;;;;3.8;3.5;;;;;;;16.33;69.68555;95899.86;;;;
2022/05/20 03:37:43;;;;;;;3.8;3.5;;;;;;;16.33;69.68555;95899.86;;;;
2022/05/20 03:38:43;;;;;;;3.8;3.5;;;;;;;16.33;69.68555;95899.86;;;;
2022/05/20 03:39:44;;;;;;;3.8;3.5;;;;;;;16.33;69.68555;95899.86;;;;
2022/05/20 03:40:45;;;;;;;3.7;3.400001;;;;;;;16.27;69.77344;95900.37;;;;
2022/05/20 03:41:45;;;;;;;3.7;3.400001;;;;;;;16.27;69.77344;95900.37;;;;
2022/05/20 03:42:46;;;;;;;3.7;3.400001;;;;;;;16.27;69.77344;95900.37;;;;
2022/05/20 03:43:47;;;;;;;3.7;3.400001;;;;;;;16.27;69.77344;95900.37;;;;
2022/05/20 03:44:47;;;;;;;3.7;3.400001;;;;;;;16.27;69.77344;95900.37;;;;
2022/05/20 03:45:47;;;;;;;3.7;3.400001;;;;;;;16.27;69.77344;95900.37;;;;
2022/05/20 03:46:48;;;;;;;3.7;3.400001;;;;;;;16.27;69.77344;95900.37;;;;
2022/05/20 03:47:50;;;;;;;3.7;3.400001;;;;;;;16.27;69.77344;95900.37;;;;
2022/05/20 03:48:51;;;;;;;3.7;3.400001;;;;;;;16.27;69.77344;95900.37;;;;
2022/05/20 03:49:51;;;;;;;3.7;3.400001;;;;;;;16.27;69.77344;95900.37;;;;
2022/05/20 03:50:52;;;;;;;3.7;3.400001;;;;;;;16.27;69.77344;95900.37;;;;
2022/05/20 03:51:52;;;;;;;4.05;3.3;;;;;;;16.22;69.94141;95898.92;;;;
2022/05/20 03:52:55;;;;;;;4.05;3.3;;;;;;;16.22;69.94141;95898.92;;;;
2022/05/20 03:53:55;;;;;;;4.05;3.3;;;;;;;16.22;69.94141;95898.92;;;;
2022/05/20 03:54:56;;;;;;;4.05;3.3;;;;;;;16.22;69.94141;95898.92;;;;
2022/05/20 03:55:58;;;;;;;4.05;3.3;;;;;;;16.22;69.94141;95898.92;;;;
2022/05/20 03:56:59;;;;;;;4.05;3.3;;;;;;;16.22;69.94141;95898.92;;;;
2022/05/20 03:58:00;;;;;;;4.05;3.3;;;;;;;16.22;69.94141;95898.92;;;;
2022/05/20 03:59:01;;;;;;;4.05;3.3;;;;;;;16.22;69.94141;95898.92;;;;
2022/05/20 04:00:01;;;;;;;4.05;3.3;;;;;;;16.22;69.94141;95898.92;;;;
2022/05/20 04:02:08;;;;;;;4.05;3.3;;;;;;;16.22;69.94141;95898.92;;;;
2022/05/20 04:03:11;;;;;;;3.6;3.3;;;;;;;16.21;70.10449;95903.06;;;;
2022/05/20 04:04:11;;;;;;;3.6;3.3;;;;;;;16.21;70.10449;95903.06;;;;
2022/05/20 04:05:12;;;;;;;3.6;3.3;;;;;;;16.21;70.10449;95903.06;;;;
2022/05/20 04:06:12;;;;;;;3.6;3.3;;;;;;;16.21;70.10449;95903.06;;;;
2022/05/20 04:07:13;;;;;;;3.6;3.3;;;;;;;16.21;70.10449;95903.06;;;;
2022/05/20 04:08:17;;;;;;;3.6;3.3;;;;;;;16.21;70.10449;95903.06;;;;
2022/05/20 04:09:17;;;;;;;3.6;3.3;;;;;;;16.21;70.10449;95903.06;;;;
2022/05/20 04:10:18;;;;;;;3.6;3.3;;;;;;;16.21;70.10449;95903.06;;;;
2022/05/20 04:11:18;;;;;;;3.6;3.3;;;;;;;16.21;70.10449;95903.06;;;;
2022/05/20 04:12:19;;;;;;;3.6;3.3;;;;;;;16.21;70.10449;95903.06;;;;
2022/05/20 04:13:26;;;;;;;3.35;3.05;;;;;;;16.34;70.30078;95900.55;;;;
2022/05/20 04:14:26;;;;;;;3.35;3.05;;;;;;;16.34;70.30078;95900.55;;;;
2022/05/20 04:15:28;;;;;;;3.35;3.05;;;;;;;16.34;70.30078;95900.55;;;;
2022/05/20 04:16:29;;;;;;;3.35;3.05;;;;;;;16.34;70.30078;95900.55;;;;
2022/05/20 04:17:29;;;;;;;3.35;3.05;;;;;;;16.34;70.30078;95900.55;;;;
2022/05/20 04:18:30;;;;;;;3.35;3.05;;;;;;;16.34;70.30078;95900.55;;;;
2022/05/20 04:19:31;;;;;;;3.35;3.05;;;;;;;16.34;70.30078;95900.55;;;;
2022/05/20 04:20:33;;;;;;;3.35;3.05;;;;;;;16.34;70.30078;95900.55;;;;
2022/05/20 04:21:34;;;;;;;3.35;3.05;;;;;;;16.34;70.30078;95900.55;;;;
2022/05/20 04:22:35;;;;;;;3.35;3.05;;;;;;;16.34;70.30078;95900.55;;;;
2022/05/20 04:23:37;;;;;;;5.749999;3.2;;;;;;;16.52;70.2627;95899.13;;;;
2022/05/20 04:24:39;;;;;;;5.749999;3.2;;;;;;;16.52;70.2627;95899.13;;;;
2022/05/20 04:25:40;;;;;;;5.749999;3.2;;;;;;;16.52;70.2627;95899.13;;;;
2022/05/20 04:26:40;;;;;;;5.749999;3.2;;;;;;;16.52;70.2627;95899.13;;;;
2022/05/20 04:27:41;;;;;;;5.749999;3.2;;;;;;;16.52;70.2627;95899.13;;;;
2022/05/20 04:28:41;;;;;;;5.749999;3.2;;;;;;;16.52;70.2627;95899.13;;;;
2022/05/20 04:29:42;;;;;;;5.749999;3.2;;;;;;;16.52;70.2627;95899.13;;;;
2022/05/20 04:30:42;;;;;;;5.749999;3.2;;;;;;;16.52;70.2627;95899.13;;;;
2022/05/20 04:31:44;;;;;;;5.749999;3.2;;;;;;;16.52;70.2627;95899.13;;;;
2022/05/20 04:32:47;;;;;;;5.749999;3.2;;;;;;;16.52;70.2627;95899.13;;;;
2022/05/20 04:33:47;;;;;;;5.749999;3.2;;;;;;;16.52;70.2627;95899.13;;;;
2022/05/20 04:34:48;;;;;;;4.549999;3.15;;;;;;;16.79;70.19727;95907.87;;;;
2022/05/20 04:35:48;;;;;;;4.549999;3.15;;;;;;;16.79;70.19727;95907.87;;;;
2022/05/20 04:36:49;;;;;;;4.549999;3.15;;;;;;;16.79;70.19727;95907.87;;;;
2022/05/20 04:37:50;;;;;;;4.549999;3.15;;;;;;;16.79;70.19727;95907.87;;;;
2022/05/20 04:38:50;;;;;;;4.549999;3.15;;;;;;;16.79;70.19727;95907.87;;;;
2022/05/20 04:39:51;;;;;;;4.549999;3.15;;;;;;;16.79;70.19727;95907.87;;;;
2022/05/20 04:46:56;;;;;;;4.549999;3.15;;;;;;;16.79;70.19727;95907.87;;;;
2022/05/20 04:48:00;;;;;;;3.5;3.2;;;;;;;17.12;69.87598;95915.23;;;;
2022/05/20 04:49:00;;;;;;;3.5;3.2;;;;;;;17.12;69.87598;95915.23;;;;
2022/05/20 04:50:01;;;;;;;3.5;3.2;;;;;;;17.12;69.87598;95915.23;;;;
2022/05/20 04:51:03;;;;;;;3.5;3.2;;;;;;;17.12;69.87598;95915.23;;;;
2022/05/20 04:52:03;;;;;;;3.5;3.2;;;;;;;17.12;69.87598;95915.23;;;;
2022/05/20 04:53:04;;;;;;;3.5;3.2;;;;;;;17.12;69.87598;95915.23;;;;
2022/05/20 04:55:10;;;;;;;3.5;3.2;;;;;;;17.12;69.87598;95915.23;;;;
2022/05/20 04:56:11;;;;;;;4.25;3.5;;;;;;;17.45;69.64453;95924.2;;;;
2022/05/20 04:57:12;;;;;;;4.25;3.5;;;;;;;17.45;69.64453;95924.2;;;;
2022/05/20 04:58:20;;;;;;;4.25;3.5;;;;;;;17.45;69.64453;95924.2;;;;
2022/05/20 04:59:21;;;;;;;4.25;3.5;;;;;;;17.45;69.64453;95924.2;;;;
2022/05/20 05:00:22;;;;;;;4.25;3.5;;;;;;;17.45;69.64453;95924.2;;;;
2022/05/20 05:01:25;;;;;;;4.25;3.5;;;;;;;17.45;69.64453;95924.2;;;;
2022/05/20 05:02:26;;;;;;;4.25;3.5;;;;;;;17.45;69.64453;95924.2;;;;
2022/05/20 05:03:27;;;;;;;4.25;3.5;;;;;;;17.45;69.64453;95924.2;;;;
2022/05/20 05:04:27;;;;;;;4.25;3.5;;;;;;;17.45;69.64453;95924.2;;;;
2022/05/20 05:05:28;;;;;;;4.25;3.5;;;;;;;17.45;69.64453;95924.2;;;;
2022/05/20 05:06:29;;;;;;;6.8;3.25;;;;;;;17.84;69.29883;95919.83;;;;
2022/05/20 05:07:29;;;;;;;6.8;3.25;;;;;;;17.84;69.29883;95919.83;;;;
2022/05/20 05:08:30;;;;;;;6.8;3.25;;;;;;;17.84;69.29883;95919.83;;;;
2022/05/20 05:09:31;;;;;;;6.8;3.25;;;;;;;17.84;69.29883;95919.83;;;;
2022/05/20 05:10:32;;;;;;;6.8;3.25;;;;;;;17.84;69.29883;95919.83;;;;
2022/05/20 05:11:32;;;;;;;6.8;3.25;;;;;;;17.84;69.29883;95919.83;;;;
2022/05/20 05:12:33;;;;;;;6.8;3.25;;;;;;;17.84;69.29883;95919.83;;;;
2022/05/20 05:13:33;;;;;;;6.8;3.25;;;;;;;17.84;69.29883;95919.83;;;;
2022/05/20 05:14:34;;;;;;;6.8;3.25;;;;;;;17.84;69.29883;95919.83;;;;
2022/05/20 05:15:35;;;;;;;6.8;3.25;;;;;;;17.84;69.29883;95919.83;;;;
2022/05/20 05:16:37;;;;;;;6.8;3.25;;;;;;;17.84;69.29883;95919.83;;;;
2022/05/20 05:18:12;;;;;;;3.65;3.35;;;;;;;18.35;68.875;95924.95;;;;
2022/05/20 05:19:13;;;;;;;3.65;3.35;;;;;;;18.35;68.875;95924.95;;;;
2022/05/20 05:20:13;;;;;;;3.65;3.35;;;;;;;18.35;68.875;95924.95;;;;
2022/05/20 05:21:18;;;;;;;3.65;3.35;;;;;;;18.35;68.875;95924.95;;;;
2022/05/20 05:22:18;;;;;;;3.65;3.35;;;;;;;18.35;68.875;95924.95;;;;
2022/05/20 05:23:18;;;;;;;3.65;3.35;;;;;;;18.35;68.875;95924.95;;;;
2022/05/20 05:24:20;;;;;;;3.65;3.35;;;;;;;18.35;68.875;95924.95;;;;
2022/05/20 05:25:21;;;;;;;3.65;3.35;;;;;;;18.35;68.875;95924.95;;;;
2022/05/20 05:26:24;;;;;;;3.65;3.35;;;;;;;18.35;68.875;95924.95;;;;
2022/05/20 05:27:25;;;;;;;3.65;3.35;;;;;;;18.94;68.16406;95914.87;;;;
2022/05/20 05:28:26;;;;;;;3.65;3.35;;;;;;;18.94;68.16406;95914.87;;;;
2022/05/20 05:29:26;;;;;;;3.65;3.35;;;;;;;18.94;68.16406;95914.87;;;;
2022/05/20 05:30:27;;;;;;;3.65;3.35;;;;;;;18.94;68.16406;95914.87;;;;
2022/05/20 05:31:29;;;;;;;3.65;3.35;;;;;;;18.94;68.16406;95914.87;;;;
2022/05/20 05:32:30;;;;;;;3.65;3.35;;;;;;;18.94;68.16406;95914.87;;;;
2022/05/20 05:33:30;;;;;;;3.65;3.35;;;;;;;18.94;68.16406;95914.87;;;;
2022/05/20 05:34:31;;;;;;;3.65;3.35;;;;;;;18.94;68.16406;95914.87;;;;
2022/05/20 05:35:31;;;;;;;3.65;3.35;;;;;;;18.94;68.16406;95914.87;;;;
2022/05/20 05:36:32;;;;;;;3.65;3.35;;;;;;;18.94;68.16406;95914.87;;;;
2022/05/20 05:37:33;;;;;;;3.65;3.35;;;;;;;18.94;68.16406;95914.87;;;;
2022/05/20 05:38:34;;;;;;;3.2;2.95;;;;;;;19.61;67.41895;95909.26;;;;
2022/05/20 05:39:34;;;;;;;3.2;2.95;;;;;;;19.61;67.41895;95909.26;;;;
2022/05/20 05:40:35;;;;;;;3.2;2.95;;;;;;;19.61;67.41895;95909.26;;;;
2022/05/20 05:41:35;;;;;;;3.2;2.95;;;;;;;19.61;67.41895;95909.26;;;;
2022/05/20 05:42:36;;;;;;;3.2;2.95;;;;;;;19.61;67.41895;95909.26;;;;
2022/05/20 05:43:37;;;;;;;3.2;2.95;;;;;;;19.61;67.41895;95909.26;;;;
2022/05/20 05:44:38;;;;;;;3.2;2.95;;;;;;;19.61;67.41895;95909.26;;;;
2022/05/20 05:45:39;;;;;;;3.2;2.95;;;;;;;19.61;67.41895;95909.26;;;;
2022/05/20 05:46:40;;;;;;;3.2;2.95;;;;;;;19.61;67.41895;95909.26;;;;
2022/05/20 05:47:41;;;;;;;3.2;2.95;;;;;;;19.61;67.41895;95909.26;;;;
2022/05/20 05:48:41;;;;;;;3.2;2.95;;;;;;;19.61;67.41895;95909.26;;;;
2022/05/20 05:49:42;;;;;;;4.3;3.2;;;;;;;20.27;66.58203;95915.01;;;;
2022/05/20 05:50:42;;;;;;;4.3;3.2;;;;;;;20.27;66.58203;95915.01;;;;
2022/05/20 05:51:44;;;;;;;4.3;3.2;;;;;;;20.27;66.58203;95915.01;;;;
2022/05/20 05:52:44;;;;;;;4.3;3.2;;;;;;;20.27;66.58203;95915.01;;;;
2022/05/20 05:53:45;;;;;;;4.3;3.2;;;;;;;20.27;66.58203;95915.01;;;;
2022/05/20 05:54:45;;;;;;;4.3;3.2;;;;;;;20.27;66.58203;95915.01;;;;
2022/05/20 05:55:46;;;;;;;4.3;3.2;;;;;;;20.27;66.58203;95915.01;;;;
2022/05/20 05:56:47;;;;;;;4.3;3.2;;;;;;;20.27;66.58203;95915.01;;;;
2022/05/20 05:57:48;;;;;;;4.3;3.2;;;;;;;20.27;66.58203;95915.01;;;;
2022/05/20 05:58:49;;;;;;;4.3;3.2;;;;;;;20.27;66.58203;95915.01;;;;
2022/05/20 05:59:50;;;;;;;4.149999;3.1;;;;;;;20.78;65.91797;95913.5;;;;
2022/05/20 06:00:51;;;;;;;4.149999;3.1;;;;;;;20.78;65.91797;95913.5;;;;
2022/05/20 06:01:53;;;;;;;4.149999;3.1;;;;;;;20.78;65.91797;95913.5;;;;
2022/05/20 06:02:57;;;;;;;4.149999;3.1;;;;;;;20.78;65.91797;95913.5;;;;